Accueil
METAR-TAF:

METAR-TAF

Aéroports :

Aéroport de Kuujjuaq

Kuujjuaq, Québec, Canada

latitude: 58-06N, longitude: 068-25W, altitude: 37 m

Observation

Le bulletin a été fait il y a 23 minutes, à 08:00 UTC
Vent 3 kt de ouest/sud-ouest, variant entre sud/sud-ouest et nord-ouest
Température -20°C
Humidité 77%
Pression 1016 hPa
Visibilité: 24.1 km
Quelques nuages à une hauteur de 13000 ft

METAR: CYVP 210800Z 25003KT 200V310 15SM FEW130 M20/M23 A3001 RMK AS1 SLP170

Heure: 03:23 (08:23 UTC)

Prévision

Le bulletin a été fait il y a 2 heures et 45 minutes, à 05:38 UTC
Prévision valable du 21 à 06 UTC au 21 à 18 UTC
Vent 10 kt de sud/sud-ouest
Visibilité: 10 km
Quelques nuages à une hauteur de 10000 ft
Quelques nuages à une hauteur de 25000 ft

TAF: CYVP 210538Z 2106/2118 20010KT P6SM FEW100 FEW250 RMK NXT FCST BY 211200Z

Observations et prévisions météorologiques de plus de 4000 aéroports (messages METAR et TAF).

Les stations disponibles sont représentées par des disques jaunes et rouges sur la carte.

Passer la souris dessus pour voir le nom de la station.

Cliquer dessus pour voir les observations et prévisions météorologiques.

Pour changer de carte: cliquez sur les boutons verts avec une croix noire pour zoomer, sur le bouton vert avec un tiret pour effectuer un zoom arrière, ou sur les flèches vertes pour les cartes adjacentes.


METAR-TAF: